createdAt,value
2022-11-05T00:00:53.600Z,5.77
2022-11-05T00:03:43.845Z,6.77
2022-11-05T00:06:29.719Z,6.00
2022-11-05T00:09:15.241Z,5.60
2022-11-05T00:12:00.628Z,6.20
2022-11-05T00:14:46.425Z,6.00
2022-11-05T00:17:13.346Z,6.10
2022-11-05T00:19:40.341Z,5.57
2022-11-05T00:22:25.660Z,5.47
2022-11-05T00:25:11.168Z,6.93
2022-11-05T00:27:38.134Z,6.53
2022-11-05T00:30:05.900Z,6.20
2022-11-05T00:32:33.976Z,6.60
2022-11-05T00:35:01.018Z,5.17
2022-11-05T00:37:28.995Z,6.30
2022-11-05T00:39:56.048Z,5.90
2022-11-05T00:42:41.410Z,7.27
2022-11-05T00:45:09.102Z,6.17
2022-11-05T00:47:55.006Z,6.30
2022-11-05T00:50:23.188Z,6.37
2022-11-05T00:52:56.342Z,6.13
2022-11-05T00:55:34.673Z,6.10
2022-11-05T00:58:04.933Z,5.70
2022-11-05T01:00:34.961Z,5.27
2022-11-05T01:03:06.396Z,6.07
2022-11-05T01:05:35.173Z,5.40
2022-11-05T01:08:02.521Z,6.33
2022-11-05T01:10:30.495Z,5.63
2022-11-05T01:12:58.837Z,5.63
2022-11-05T01:15:25.810Z,5.37
2022-11-05T01:17:53.067Z,5.87
2022-11-05T01:20:20.059Z,5.97
2022-11-05T01:22:47.068Z,6.97
2022-11-05T01:25:14.789Z,6.90
2022-11-05T01:27:41.729Z,5.67
2022-11-05T01:30:09.888Z,5.57
2022-11-05T01:32:38.219Z,6.63
2022-11-05T01:35:08.560Z,5.77
2022-11-05T01:37:36.031Z,6.00
2022-11-05T01:40:03.528Z,5.40
2022-11-05T01:42:34.367Z,9.57
2022-11-05T01:45:07.303Z,6.73
2022-11-05T01:47:44.907Z,6.57
2022-11-05T01:50:40.352Z,6.13
2022-11-05T01:53:30.337Z,6.00
2022-11-05T01:56:10.587Z,5.87
2022-11-05T01:58:51.000Z,6.40
2022-11-05T02:01:19.353Z,7.07
2022-11-05T02:03:51.408Z,7.27
2022-11-05T02:06:19.663Z,7.70
2022-11-05T02:08:57.697Z,6.43
2022-11-05T02:11:25.331Z,6.83
2022-11-05T02:13:53.093Z,8.53
2022-11-05T02:16:51.231Z,13.53
2022-11-05T02:20:06.670Z,10.47
2022-11-05T02:23:05.257Z,11.30
2022-11-05T02:26:12.589Z,7.50
2022-11-05T02:29:13.270Z,10.03
2022-11-05T02:31:59.324Z,8.60
2022-11-05T02:34:36.221Z,7.70
2022-11-05T02:37:35.399Z,9.03
2022-11-05T02:40:40.219Z,7.23
2022-11-05T02:43:45.678Z,7.67
2022-11-05T02:47:07.224Z,7.70
2022-11-05T02:49:41.821Z,6.83
2022-11-05T02:52:29.232Z,7.83
2022-11-05T02:55:18.315Z,7.53
2022-11-05T02:57:47.871Z,7.50
2022-11-05T03:00:40.544Z,7.70
2022-11-05T03:03:17.772Z,8.50
2022-11-05T03:05:52.870Z,8.27
2022-11-05T03:08:54.248Z,9.63
2022-11-05T03:11:25.605Z,8.57
2022-11-05T03:14:37.062Z,8.00
2022-11-05T03:17:35.539Z,8.80
2022-11-05T03:20:28.928Z,8.10
2022-11-05T03:23:13.635Z,8.37
2022-11-05T03:25:51.422Z,7.77
2022-11-05T03:28:26.048Z,9.70
2022-11-05T03:30:57.153Z,8.87
2022-11-05T03:33:31.870Z,9.37
2022-11-05T03:36:05.497Z,9.37
2022-11-05T03:38:37.301Z,8.60
2022-11-05T03:41:10.648Z,10.30
2022-11-05T03:43:45.421Z,7.97
2022-11-05T03:46:27.397Z,9.73
2022-11-05T03:48:57.431Z,9.83
2022-11-05T03:51:51.786Z,9.57
2022-11-05T03:54:18.823Z,9.67
2022-11-05T03:57:23.953Z,10.23
2022-11-05T03:59:52.210Z,8.90
2022-11-05T04:02:25.912Z,9.33
2022-11-05T04:04:54.579Z,10.00
2022-11-05T04:07:39.980Z,10.57
2022-11-05T04:10:25.744Z,12.97
2022-11-05T04:13:11.367Z,10.43
2022-11-05T04:16:02.091Z,10.80
2022-11-05T04:18:29.146Z,10.17
2022-11-05T04:21:14.735Z,11.10
2022-11-05T04:24:00.152Z,9.83
2022-11-05T04:26:27.072Z,11.43
2022-11-05T04:29:12.875Z,10.00
2022-11-05T04:31:39.758Z,10.80
2022-11-05T04:34:06.681Z,10.50
2022-11-05T04:36:33.653Z,15.00
2022-11-05T04:39:00.597Z,12.50
2022-11-05T04:41:27.550Z,9.77
2022-11-05T04:43:54.513Z,12.23
2022-11-05T04:46:22.082Z,12.10
2022-11-05T04:48:49.084Z,11.30
2022-11-05T04:51:16.096Z,10.20
2022-11-05T04:53:43.055Z,12.23
2022-11-05T04:56:22.821Z,12.97
2022-11-05T04:58:50.575Z,12.70
2022-11-05T05:01:21.499Z,11.37
2022-11-05T05:03:53.425Z,12.53
2022-11-05T05:06:21.635Z,13.40
2022-11-05T05:08:51.032Z,13.60
2022-11-05T05:11:21.735Z,18.80
2022-11-05T05:13:50.359Z,13.03
2022-11-05T05:16:23.727Z,12.50
2022-11-05T05:18:52.261Z,11.17
2022-11-05T05:21:41.135Z,11.77
2022-11-05T05:24:19.099Z,10.63
2022-11-05T05:26:49.763Z,11.83
2022-11-05T05:29:18.136Z,12.93
2022-11-05T05:31:45.320Z,10.63
2022-11-05T05:34:14.839Z,9.43
2022-11-05T05:36:42.152Z,7.87
2022-11-05T05:39:11.389Z,9.17
2022-11-05T05:41:38.439Z,8.60
2022-11-05T05:44:06.689Z,6.53
2022-11-05T05:46:34.424Z,6.20
2022-11-05T05:49:01.408Z,7.37
2022-11-05T05:51:28.470Z,5.03
2022-11-05T05:53:55.769Z,4.00
2022-11-05T05:56:22.696Z,4.80
2022-11-05T05:58:49.799Z,4.03
2022-11-05T06:01:19.864Z,3.33
2022-11-05T06:03:48.948Z,3.70
2022-11-05T06:06:20.049Z,4.20
2022-11-05T06:08:47.973Z,5.63
2022-11-05T06:11:16.216Z,5.10
2022-11-05T06:13:43.226Z,4.40
2022-11-05T06:16:11.401Z,4.80
2022-11-05T06:18:38.531Z,4.80
2022-11-05T06:21:09.661Z,3.77
2022-11-05T06:23:39.261Z,4.30
2022-11-05T06:26:11.070Z,3.10
2022-11-05T06:28:38.361Z,8.00
2022-11-05T06:31:06.155Z,3.70
2022-11-05T06:33:33.087Z,3.60
2022-11-05T06:36:04.835Z,3.80
2022-11-05T06:38:35.266Z,3.20
2022-11-05T06:41:09.029Z,3.57
2022-11-05T06:43:37.649Z,5.10
2022-11-05T06:46:05.592Z,4.57
2022-11-05T06:48:33.179Z,4.40
2022-11-05T06:51:00.163Z,3.80
2022-11-05T06:53:27.835Z,5.20
2022-11-05T06:55:55.134Z,4.10
2022-11-05T06:58:22.586Z,4.00
2022-11-05T07:00:50.202Z,3.60
2022-11-05T07:03:17.379Z,4.27
2022-11-05T07:05:49.170Z,4.10
2022-11-05T07:08:17.136Z,4.77
2022-11-05T07:10:44.304Z,4.30
2022-11-05T07:13:12.519Z,3.80
2022-11-05T07:15:39.865Z,4.00
2022-11-05T07:18:07.714Z,4.63
2022-11-05T07:20:35.366Z,5.00
2022-11-05T07:23:08.866Z,4.27
2022-11-05T07:25:36.465Z,4.40
2022-11-05T07:28:04.832Z,4.50
2022-11-05T07:30:33.387Z,5.07
2022-11-05T07:33:00.414Z,3.93
2022-11-05T07:35:28.155Z,4.87
2022-11-05T07:37:56.114Z,4.80
2022-11-05T07:40:26.369Z,4.60
2022-11-05T07:43:01.904Z,5.97
2022-11-05T07:45:31.233Z,5.73
2022-11-05T07:48:04.219Z,5.13
2022-11-05T07:50:35.877Z,6.63
2022-11-05T07:53:10.342Z,6.60
2022-11-05T07:55:38.144Z,7.50
2022-11-05T07:58:05.230Z,6.80
2022-11-05T08:00:33.137Z,5.80
2022-11-05T08:03:08.496Z,5.23
2022-11-05T08:05:40.681Z,5.80
2022-11-05T08:08:09.699Z,9.67
2022-11-05T08:10:38.541Z,6.40
2022-11-05T08:13:08.113Z,12.70
2022-11-05T08:15:36.037Z,7.10
2022-11-05T08:18:10.666Z,5.73
2022-11-05T08:20:38.621Z,5.17
2022-11-05T08:23:06.038Z,5.60
2022-11-05T08:25:33.783Z,5.43
2022-11-05T08:28:07.935Z,4.20
2022-11-05T08:30:35.975Z,4.90
2022-11-05T08:33:10.955Z,4.60
2022-11-05T08:35:39.806Z,4.40
2022-11-05T08:38:09.259Z,4.47
2022-11-05T08:40:37.912Z,3.90
2022-11-05T08:43:08.129Z,7.03
2022-11-05T08:45:39.505Z,4.67
2022-11-05T08:48:12.763Z,5.73
2022-11-05T08:50:40.398Z,6.03
2022-11-05T08:53:09.520Z,6.70
2022-11-05T08:55:38.482Z,7.50
2022-11-05T08:58:15.164Z,8.43
2022-11-05T09:00:44.069Z,10.97
2022-11-05T09:03:12.364Z,8.13
2022-11-05T09:05:41.792Z,8.73
2022-11-05T09:08:15.610Z,11.17
2022-11-05T09:10:44.289Z,8.30
2022-11-05T09:13:17.823Z,8.67
2022-11-05T09:15:47.439Z,8.40
2022-11-05T09:18:15.374Z,8.53
2022-11-05T09:20:42.734Z,9.40
2022-11-05T09:23:11.945Z,9.30
2022-11-05T09:25:39.320Z,8.53
2022-11-05T09:28:21.536Z,10.33
2022-11-05T09:30:51.674Z,8.83
2022-11-05T09:33:22.711Z,9.13
2022-11-05T09:35:50.086Z,9.47
2022-11-05T09:38:17.152Z,11.53
2022-11-05T09:40:46.874Z,9.20
2022-11-05T09:43:20.770Z,9.13
2022-11-05T09:45:54.906Z,9.40
2022-11-05T09:48:28.566Z,11.20
2022-11-05T09:50:55.834Z,11.50
2022-11-05T09:53:24.412Z,10.13
2022-11-05T09:55:59.538Z,10.30
2022-11-05T09:58:46.129Z,11.10
2022-11-05T10:01:23.627Z,10.93
2022-11-05T10:03:57.562Z,10.50
2022-11-05T10:06:27.055Z,12.77
2022-11-05T10:09:37.484Z,10.93
2022-11-05T10:12:21.630Z,10.90
2022-11-05T10:15:05.831Z,11.23
2022-11-05T10:17:39.156Z,14.90
2022-11-05T10:20:51.340Z,15.00
2022-11-05T10:23:21.450Z,10.40
2022-11-05T10:25:58.621Z,9.87
2022-11-05T10:28:30.836Z,12.60
2022-11-05T10:31:12.688Z,13.13
2022-11-05T10:34:00.428Z,12.03
2022-11-05T10:36:35.055Z,12.50
2022-11-05T10:39:11.231Z,23.20
2022-11-05T10:42:15.130Z,15.40
2022-11-05T10:45:04.564Z,17.33
2022-11-05T10:48:05.045Z,13.60
2022-11-05T10:50:33.589Z,14.83
2022-11-05T10:53:11.829Z,13.83
2022-11-05T10:55:48.285Z,13.90
2022-11-05T10:58:18.118Z,14.00
2022-11-05T11:01:02.234Z,14.30
2022-11-05T11:03:38.318Z,12.87
2022-11-05T11:06:30.019Z,13.27
2022-11-05T11:09:02.266Z,12.03
2022-11-05T11:11:42.501Z,13.77
2022-11-05T11:14:12.779Z,12.97
2022-11-05T11:16:47.747Z,12.03
2022-11-05T11:19:33.986Z,12.53
2022-11-05T11:22:03.854Z,13.73
2022-11-05T11:24:51.158Z,12.43
2022-11-05T11:27:30.383Z,12.93
2022-11-05T11:30:03.306Z,13.20
2022-11-05T11:32:37.532Z,13.17
2022-11-05T11:35:08.196Z,13.07
2022-11-05T11:37:42.241Z,13.37
2022-11-05T11:40:20.275Z,12.73
2022-11-05T11:42:56.099Z,12.57
2022-11-05T11:45:30.435Z,11.03
2022-11-05T11:47:58.191Z,14.47
2022-11-05T11:50:44.797Z,11.93
2022-11-05T11:53:20.806Z,11.20
2022-11-05T11:56:03.663Z,10.20
2022-11-05T11:58:52.942Z,11.23
2022-11-05T12:01:50.470Z,11.90
2022-11-05T12:05:00.320Z,12.60
2022-11-05T12:07:53.751Z,10.77
2022-11-05T12:10:35.754Z,11.07
2022-11-05T12:13:21.221Z,11.80
2022-11-05T12:16:15.862Z,11.77
2022-11-05T12:19:04.793Z,10.00
2022-11-05T12:21:52.113Z,9.90
2022-11-05T12:24:38.318Z,11.20
2022-11-05T12:27:35.860Z,10.60
2022-11-05T12:30:14.538Z,10.07
2022-11-05T12:33:12.552Z,10.90
2022-11-05T12:35:58.350Z,10.30
2022-11-05T12:38:54.961Z,8.70
2022-11-05T12:41:41.476Z,9.57
2022-11-05T12:44:49.745Z,11.10
2022-11-05T12:47:34.570Z,10.97
2022-11-05T12:50:36.321Z,10.13
2022-11-05T12:53:40.988Z,8.70
2022-11-05T12:56:44.575Z,11.07
2022-11-05T12:59:46.065Z,9.60
2022-11-05T13:02:18.420Z,9.90
2022-11-05T13:05:15.163Z,9.77
2022-11-05T13:08:00.763Z,9.73
2022-11-05T13:11:12.041Z,9.17
2022-11-05T13:14:07.786Z,9.80
2022-11-05T13:16:40.740Z,8.00
2022-11-05T13:19:24.675Z,8.33
2022-11-05T13:21:58.969Z,8.80
2022-11-05T13:24:53.696Z,7.53
2022-11-05T13:27:42.539Z,9.73
2022-11-05T13:30:21.529Z,8.67
2022-11-05T13:33:05.821Z,8.63
2022-11-05T13:36:25.361Z,7.63
2022-11-05T13:39:13.180Z,8.43
2022-11-05T13:42:21.196Z,8.40
2022-11-05T13:45:14.985Z,8.33
2022-11-05T13:48:06.979Z,8.87
2022-11-05T13:51:34.856Z,9.43
2022-11-05T13:54:33.437Z,9.57
2022-11-05T13:57:21.189Z,8.57
2022-11-05T13:59:51.742Z,8.53
2022-11-05T14:02:29.599Z,9.87
2022-11-05T14:05:01.886Z,9.70
2022-11-05T14:07:37.054Z,8.60
2022-11-05T14:10:25.411Z,8.43
2022-11-05T14:12:56.116Z,9.70
2022-11-05T14:15:30.189Z,10.43
2022-11-05T14:18:00.032Z,9.57
2022-11-05T14:20:46.231Z,10.23
2022-11-05T14:23:24.944Z,11.23
2022-11-05T14:26:19.838Z,10.20
2022-11-05T14:29:02.914Z,12.03
2022-11-05T14:32:02.397Z,10.77
2022-11-05T14:34:46.181Z,13.03
2022-11-05T14:37:13.149Z,11.60
2022-11-05T14:39:40.763Z,10.93
2022-11-05T14:42:15.229Z,10.80
2022-11-05T14:45:13.756Z,11.67
2022-11-05T14:48:28.450Z,13.50
2022-11-05T14:50:55.582Z,12.80
2022-11-05T14:53:38.512Z,11.20
2022-11-05T14:56:11.889Z,12.03
2022-11-05T14:58:44.587Z,12.73
2022-11-05T15:01:14.494Z,11.73
2022-11-05T15:03:46.267Z,10.57
2022-11-05T15:06:23.239Z,11.00
2022-11-05T15:08:50.170Z,10.57
2022-11-05T15:11:52.754Z,9.83
2022-11-05T15:14:49.633Z,10.53
2022-11-05T15:17:30.263Z,10.07
2022-11-05T15:20:40.410Z,11.17
2022-11-05T15:23:14.538Z,10.40
2022-11-05T15:26:10.621Z,10.50
2022-11-05T15:28:42.940Z,11.10
2022-11-05T15:31:12.649Z,11.00
2022-11-05T15:33:42.590Z,11.40
2022-11-05T15:36:15.076Z,10.73
2022-11-05T15:38:56.598Z,11.37
2022-11-05T15:41:34.716Z,13.50
2022-11-05T15:44:02.874Z,15.13
2022-11-05T15:46:30.283Z,12.43
2022-11-05T15:49:07.296Z,10.47
2022-11-05T15:51:36.227Z,12.67
2022-11-05T15:56:57.412Z,16.63
2022-11-05T15:59:27.448Z,13.67
2022-11-05T16:02:02.129Z,15.97
2022-11-05T16:04:33.759Z,17.13
2022-11-05T16:07:11.878Z,13.40
2022-11-05T16:09:43.947Z,14.97
2022-11-05T16:12:19.967Z,13.77
2022-11-05T16:15:11.014Z,13.30
2022-11-05T16:17:37.899Z,24.13
2022-11-05T16:20:34.367Z,13.03
2022-11-05T16:23:05.766Z,13.90
2022-11-05T16:25:42.291Z,13.17
2022-11-05T16:28:28.518Z,19.43
2022-11-05T16:31:03.604Z,31.43
2022-11-05T16:33:41.865Z,29.00
2022-11-05T16:36:09.475Z,23.90
2022-11-05T16:38:36.540Z,16.40
2022-11-05T16:41:03.453Z,17.27
2022-11-05T16:43:30.796Z,20.13
2022-11-05T16:46:01.068Z,19.90
2022-11-05T16:48:28.964Z,22.90
2022-11-05T16:50:56.046Z,18.37
2022-11-05T16:53:23.400Z,20.20
2022-11-05T16:55:50.446Z,19.80
2022-11-05T16:58:19.938Z,23.10
2022-11-05T17:00:48.735Z,19.17
2022-11-05T17:03:15.832Z,25.73
2022-11-05T17:05:43.690Z,26.13
2022-11-05T17:08:10.895Z,30.93
2022-11-05T17:10:38.587Z,27.20
2022-11-05T17:13:05.561Z,25.07
2022-11-05T17:15:37.630Z,33.17
2022-11-05T17:18:06.132Z,35.50
2022-11-05T17:20:43.551Z,40.60
2022-11-05T17:23:15.067Z,49.70
2022-11-05T17:25:47.556Z,49.37
2022-11-05T17:28:17.066Z,46.90
2022-11-05T17:30:50.881Z,31.60
2022-11-05T17:33:21.815Z,28.60
2022-11-05T17:35:49.152Z,23.47
2022-11-05T17:38:17.785Z,20.50
2022-11-05T17:40:45.792Z,24.47
2022-11-05T17:43:12.909Z,24.80
2022-11-05T17:45:46.075Z,22.37
2022-11-05T17:48:14.429Z,34.57
2022-11-05T17:50:44.842Z,34.80
2022-11-05T17:53:13.804Z,30.43
2022-11-05T17:55:44.209Z,29.07
2022-11-05T17:58:12.180Z,26.27
2022-11-05T18:00:41.347Z,22.10
2022-11-05T18:03:10.966Z,20.90
2022-11-05T18:05:40.429Z,24.83
2022-11-05T18:08:07.944Z,21.10
2022-11-05T18:10:38.561Z,22.40
2022-11-05T18:13:06.980Z,21.53
2022-11-05T18:15:35.712Z,26.00
2022-11-05T18:18:02.908Z,22.50
2022-11-05T18:20:30.257Z,20.97
2022-11-05T18:22:57.293Z,21.33
2022-11-05T18:25:24.486Z,22.13
2022-11-05T18:27:51.775Z,25.60
2022-11-05T18:30:19.075Z,39.57
2022-11-05T18:32:46.277Z,27.80
2022-11-05T18:35:14.837Z,28.53
2022-11-05T18:37:43.616Z,21.00
2022-11-05T18:40:13.310Z,21.27
2022-11-05T18:42:40.840Z,29.83
2022-11-05T18:45:10.075Z,26.33
2022-11-05T18:47:37.435Z,20.20
2022-11-05T18:50:06.259Z,19.80
2022-11-05T18:52:33.415Z,19.60
2022-11-05T18:55:00.682Z,15.60
2022-11-05T18:57:29.042Z,19.27
2022-11-05T18:59:56.013Z,11.63
2022-11-05T19:02:23.304Z,10.80
2022-11-05T19:05:14.424Z,9.70
2022-11-05T19:07:39.455Z,9.37
2022-11-05T19:10:07.731Z,10.27
2022-11-05T19:12:34.811Z,8.20
2022-11-05T19:15:02.935Z,8.70
2022-11-05T19:17:33.770Z,8.27
2022-11-05T19:20:04.261Z,9.03
2022-11-05T19:22:51.856Z,11.17
2022-11-05T19:25:33.787Z,28.77
2022-11-05T19:28:16.869Z,16.70
2022-11-05T19:31:02.558Z,33.47
2022-11-05T19:33:47.696Z,22.63
2022-11-05T19:36:41.150Z,39.70
2022-11-05T19:39:29.128Z,35.83
2022-11-05T19:42:48.011Z,23.17
2022-11-05T19:45:48.807Z,22.23
2022-11-05T19:48:45.411Z,16.93
2022-11-05T19:51:46.950Z,13.50
2022-11-05T19:54:39.377Z,16.17
2022-11-05T19:57:39.831Z,11.90
2022-11-05T20:00:10.055Z,16.07
2022-11-05T20:02:47.433Z,17.07
2022-11-05T20:05:31.119Z,18.80
2022-11-05T20:08:07.818Z,15.27
2022-11-05T20:10:43.979Z,18.40
2022-11-05T20:13:19.823Z,16.50
2022-11-05T20:16:05.250Z,14.57
2022-11-05T20:19:00.145Z,18.50
2022-11-05T20:21:56.803Z,21.33
2022-11-05T20:24:45.996Z,21.90
2022-11-05T20:27:26.098Z,19.47
2022-11-05T20:30:02.521Z,28.50
2022-11-05T20:32:40.887Z,23.43
2022-11-05T20:35:17.447Z,22.07
2022-11-05T20:37:53.919Z,29.60
2022-11-05T20:40:30.425Z,24.40
2022-11-05T20:42:58.326Z,28.90
2022-11-05T20:45:27.425Z,35.97
2022-11-05T20:47:57.755Z,33.10
2022-11-05T20:50:29.097Z,29.17
2022-11-05T20:52:59.567Z,52.30
2022-11-05T20:55:29.427Z,40.20
2022-11-05T20:58:00.206Z,27.57
2022-11-05T21:00:29.320Z,25.00
2022-11-05T21:03:01.533Z,16.50
2022-11-05T21:05:37.928Z,16.53
2022-11-05T21:08:06.386Z,17.07
2022-11-05T21:10:36.700Z,16.83
2022-11-05T21:13:08.649Z,19.90
2022-11-05T21:15:42.900Z,20.10
2022-11-05T21:18:14.051Z,17.50
2022-11-05T21:20:41.437Z,19.70
2022-11-05T21:23:08.398Z,16.70
2022-11-05T21:25:41.121Z,15.30
2022-11-05T21:28:10.529Z,16.30
2022-11-05T21:30:42.225Z,14.63
2022-11-05T21:33:09.481Z,13.97
2022-11-05T21:35:46.591Z,14.30
2022-11-05T21:38:17.086Z,13.37
2022-11-05T21:40:45.446Z,12.57
2022-11-05T21:43:14.104Z,12.93
2022-11-05T21:45:44.460Z,12.30
2022-11-05T21:48:12.631Z,13.00
2022-11-05T21:51:00.055Z,12.53
2022-11-05T21:53:46.443Z,12.43
2022-11-05T21:56:48.509Z,14.00
2022-11-05T21:59:39.733Z,13.03
2022-11-05T22:02:09.944Z,14.20
2022-11-05T22:04:46.594Z,12.80
2022-11-05T22:07:17.715Z,12.60
2022-11-05T22:09:45.176Z,11.40
2022-11-05T22:12:13.066Z,9.40
2022-11-05T22:14:40.505Z,9.47
2022-11-05T22:17:09.470Z,9.80
2022-11-05T22:19:37.506Z,9.87
2022-11-05T22:22:06.120Z,10.37
2022-11-05T22:24:34.995Z,8.90
2022-11-05T22:27:13.960Z,10.77
2022-11-05T22:29:41.676Z,10.83
2022-11-05T22:32:10.804Z,10.67
2022-11-05T22:34:37.915Z,9.97
2022-11-05T22:37:05.687Z,9.43
2022-11-05T22:39:32.828Z,10.83
2022-11-05T22:42:05.560Z,9.17
2022-11-05T22:44:35.365Z,9.50
2022-11-05T22:47:02.322Z,10.20
2022-11-05T22:49:29.260Z,9.97
2022-11-05T22:51:56.364Z,11.40
2022-11-05T22:54:23.259Z,10.97
2022-11-05T22:56:54.008Z,11.00
2022-11-05T22:59:21.167Z,11.30
2022-11-05T23:01:48.361Z,10.30
2022-11-05T23:04:16.420Z,9.77
2022-11-05T23:07:01.979Z,9.10
2022-11-05T23:09:53.343Z,9.40
2022-11-05T23:12:26.422Z,9.97
2022-11-05T23:14:55.712Z,9.73
2022-11-05T23:17:41.857Z,11.30
2022-11-05T23:20:15.529Z,10.87
2022-11-05T23:23:01.195Z,10.93
2022-11-05T23:25:28.211Z,11.90
2022-11-05T23:27:56.110Z,10.93
2022-11-05T23:30:26.664Z,11.20
2022-11-05T23:32:54.281Z,10.80
2022-11-05T23:35:41.140Z,10.60
2022-11-05T23:38:26.811Z,11.00
2022-11-05T23:41:11.970Z,10.50
2022-11-05T23:43:57.419Z,10.90
2022-11-05T23:46:42.914Z,11.27
2022-11-05T23:49:09.983Z,11.03
2022-11-05T23:51:36.970Z,10.57
2022-11-05T23:54:04.060Z,12.50
2022-11-05T23:56:32.141Z,11.27
2022-11-05T23:58:59.138Z,11.30
